createdAt,value
2023-03-29T00:01:01.760Z,10.79
2023-03-29T00:03:30.652Z,10.97
2023-03-29T00:06:03.202Z,11.01
2023-03-29T00:08:38.037Z,11.17
2023-03-29T00:11:07.555Z,11.16
2023-03-29T00:13:36.079Z,11.11
2023-03-29T00:16:04.905Z,11.03
2023-03-29T00:18:33.351Z,11.13
2023-03-29T00:21:02.228Z,11.11
2023-03-29T00:23:31.204Z,11.12
2023-03-29T00:25:59.619Z,11.30
2023-03-29T00:28:28.240Z,11.28
2023-03-29T00:31:09.034Z,11.35
2023-03-29T00:33:38.456Z,11.20
2023-03-29T00:36:08.875Z,11.10
2023-03-29T00:38:37.415Z,11.02
2023-03-29T00:41:08.052Z,11.21
2023-03-29T00:43:59.117Z,11.05
2023-03-29T00:46:30.554Z,11.11
2023-03-29T00:49:07.234Z,11.16
2023-03-29T00:51:39.372Z,11.23
2023-03-29T00:54:14.659Z,11.18
2023-03-29T00:56:49.754Z,11.24
2023-03-29T00:59:23.790Z,11.35
2023-03-29T01:02:02.325Z,11.47
2023-03-29T01:04:42.940Z,11.30
2023-03-29T01:07:35.367Z,11.08
2023-03-29T01:10:16.240Z,11.19
2023-03-29T01:12:51.587Z,11.14
2023-03-29T01:15:25.596Z,11.35
2023-03-29T01:17:55.882Z,11.56
2023-03-29T01:20:49.054Z,11.58
2023-03-29T01:23:38.144Z,11.44
2023-03-29T01:26:44.028Z,11.58
2023-03-29T01:29:18.001Z,11.61
2023-03-29T01:31:52.711Z,11.44
2023-03-29T01:34:27.541Z,11.56
2023-03-29T01:37:05.851Z,11.69
2023-03-29T01:39:35.098Z,11.52
2023-03-29T01:42:16.844Z,11.50
2023-03-29T01:45:13.706Z,11.44
2023-03-29T01:47:42.222Z,11.30
2023-03-29T01:50:26.612Z,11.60
2023-03-29T01:53:07.697Z,11.65
2023-03-29T01:55:40.294Z,11.44
2023-03-29T01:58:11.907Z,11.63
2023-03-29T02:00:42.108Z,11.60
2023-03-29T02:03:10.793Z,11.61
2023-03-29T02:05:39.804Z,11.76
2023-03-29T02:08:11.041Z,11.77
2023-03-29T02:10:40.589Z,11.79
2023-03-29T02:13:09.286Z,11.91
2023-03-29T02:15:38.552Z,11.83
2023-03-29T02:18:07.590Z,11.87
2023-03-29T02:20:43.543Z,11.87
2023-03-29T02:23:34.189Z,11.91
2023-03-29T02:26:03.887Z,11.34
2023-03-29T02:28:33.347Z,11.51
2023-03-29T02:31:12.212Z,11.76
2023-03-29T02:33:53.037Z,11.88
2023-03-29T02:36:49.962Z,11.91
2023-03-29T02:39:20.282Z,11.84
2023-03-29T02:41:51.057Z,12.05
2023-03-29T02:44:22.650Z,12.02
2023-03-29T02:46:56.821Z,11.89
2023-03-29T02:49:25.773Z,12.11
2023-03-29T02:51:57.077Z,12.11
2023-03-29T02:54:29.976Z,12.16
2023-03-29T02:57:00.789Z,12.08
2023-03-29T02:59:30.099Z,11.95
2023-03-29T03:01:58.925Z,11.83
2023-03-29T03:04:28.008Z,11.94
2023-03-29T03:06:56.457Z,11.93
2023-03-29T03:09:24.972Z,11.89
2023-03-29T03:11:53.539Z,12.02
2023-03-29T03:14:24.832Z,12.02
2023-03-29T03:16:53.326Z,12.00
2023-03-29T03:19:22.785Z,12.14
2023-03-29T03:21:51.720Z,12.28
2023-03-29T03:24:20.173Z,12.29
2023-03-29T03:26:50.054Z,12.26
2023-03-29T03:29:18.998Z,12.17
2023-03-29T03:31:47.430Z,12.29
2023-03-29T03:34:15.929Z,12.38
2023-03-29T03:36:44.492Z,12.20
2023-03-29T03:39:13.605Z,12.18
2023-03-29T03:41:42.076Z,12.13
2023-03-29T03:44:10.606Z,12.16
2023-03-29T03:46:39.174Z,12.18
2023-03-29T03:49:07.626Z,12.27
2023-03-29T03:51:36.144Z,12.12
2023-03-29T03:54:04.688Z,12.13
2023-03-29T03:56:34.281Z,12.07
2023-03-29T03:59:02.921Z,12.07
2023-03-29T04:01:31.376Z,12.06
2023-03-29T04:03:59.892Z,12.02
2023-03-29T04:06:30.663Z,12.20
2023-03-29T04:08:59.756Z,12.16
2023-03-29T04:11:28.378Z,11.98
2023-03-29T04:13:57.755Z,12.09
2023-03-29T04:16:27.545Z,12.05
2023-03-29T04:18:56.585Z,11.98
2023-03-29T04:21:25.110Z,12.07
2023-03-29T04:23:53.641Z,12.10
2023-03-29T04:26:22.874Z,12.13
2023-03-29T04:28:51.385Z,12.12
2023-03-29T04:31:19.951Z,12.14
2023-03-29T04:33:48.577Z,12.18
2023-03-29T04:36:17.061Z,12.15
2023-03-29T04:38:47.665Z,12.22
2023-03-29T04:41:18.058Z,12.36
2023-03-29T04:43:47.060Z,12.41
2023-03-29T04:46:15.589Z,12.44
2023-03-29T04:48:44.153Z,12.55
2023-03-29T04:51:12.744Z,12.58
2023-03-29T04:53:41.639Z,12.60
2023-03-29T04:56:10.155Z,12.66
2023-03-29T04:58:38.603Z,12.48
2023-03-29T05:01:07.126Z,12.56
2023-03-29T05:03:35.793Z,12.55
2023-03-29T05:06:06.819Z,12.45
2023-03-29T05:08:39.139Z,12.54
2023-03-29T05:11:11.693Z,12.49
2023-03-29T05:13:40.210Z,12.46
2023-03-29T05:16:11.160Z,12.45
2023-03-29T05:18:40.119Z,12.45
2023-03-29T05:21:09.467Z,12.54
2023-03-29T05:23:38.299Z,12.54
2023-03-29T05:26:09.833Z,12.60
2023-03-29T05:28:39.473Z,12.69
2023-03-29T05:31:08.419Z,12.69
2023-03-29T05:33:37.018Z,12.64
2023-03-29T05:36:13.652Z,12.85
2023-03-29T05:38:45.166Z,12.87
2023-03-29T05:41:14.775Z,12.84
2023-03-29T05:43:43.823Z,12.65
2023-03-29T05:46:12.647Z,12.74
2023-03-29T05:48:41.585Z,12.81
2023-03-29T05:51:10.420Z,12.90
2023-03-29T05:53:38.862Z,12.88
2023-03-29T05:56:08.770Z,12.93
2023-03-29T05:58:39.338Z,13.05
2023-03-29T06:01:12.913Z,12.91
2023-03-29T06:03:42.232Z,12.88
2023-03-29T06:06:10.824Z,12.76
2023-03-29T06:08:39.371Z,12.76
2023-03-29T06:11:11.174Z,12.81
2023-03-29T06:13:40.233Z,12.72
2023-03-29T06:16:10.825Z,12.73
2023-03-29T06:18:40.316Z,12.98
2023-03-29T06:21:09.428Z,12.98
2023-03-29T06:23:38.040Z,12.95
2023-03-29T06:26:06.797Z,12.93
2023-03-29T06:28:35.630Z,13.00
2023-03-29T06:31:04.499Z,13.10
2023-03-29T06:33:34.124Z,13.10
2023-03-29T06:36:03.465Z,13.23
2023-03-29T06:38:32.072Z,13.18
2023-03-29T06:41:06.028Z,13.10
2023-03-29T06:43:35.000Z,13.19
2023-03-29T06:46:04.243Z,13.15
2023-03-29T06:48:32.865Z,13.09
2023-03-29T06:51:01.501Z,13.33
2023-03-29T06:53:30.674Z,13.29
2023-03-29T06:55:59.682Z,13.39
2023-03-29T06:58:28.866Z,13.37
2023-03-29T07:01:02.572Z,13.55
2023-03-29T07:03:31.538Z,13.43
2023-03-29T07:06:04.268Z,13.60
2023-03-29T07:08:34.927Z,13.71
2023-03-29T07:11:04.015Z,13.84
2023-03-29T07:13:33.074Z,13.73
2023-03-29T07:16:01.643Z,13.91
2023-03-29T07:18:30.399Z,14.02
2023-03-29T07:20:58.933Z,14.13
2023-03-29T07:23:27.638Z,14.10
2023-03-29T07:25:56.484Z,14.02
2023-03-29T07:28:25.184Z,13.96
2023-03-29T07:30:54.918Z,13.90
2023-03-29T07:33:24.316Z,14.08
2023-03-29T07:35:52.997Z,14.10
2023-03-29T07:38:21.507Z,14.12
2023-03-29T07:40:49.971Z,14.32
2023-03-29T07:43:18.850Z,14.46
2023-03-29T07:45:48.447Z,14.36
2023-03-29T07:48:17.798Z,14.30
2023-03-29T07:50:46.745Z,14.20
2023-03-29T07:53:15.932Z,14.27
2023-03-29T07:55:47.719Z,14.39
2023-03-29T07:58:16.651Z,14.52
2023-03-29T08:00:45.140Z,14.48
2023-03-29T08:03:14.964Z,14.40
2023-03-29T08:05:43.699Z,14.41
2023-03-29T08:08:12.356Z,14.47
2023-03-29T08:10:42.464Z,14.53
2023-03-29T08:13:11.962Z,14.34
2023-03-29T08:15:42.062Z,14.36
2023-03-29T08:18:10.725Z,14.47
2023-03-29T08:20:39.343Z,14.45
2023-03-29T08:23:07.934Z,14.40
2023-03-29T08:25:36.636Z,14.40
2023-03-29T08:28:05.128Z,14.49
2023-03-29T08:30:34.949Z,14.56
2023-03-29T08:33:03.661Z,14.49
2023-03-29T08:35:32.369Z,14.40
2023-03-29T08:38:01.081Z,14.43
2023-03-29T08:40:30.619Z,14.46
2023-03-29T08:43:24.041Z,14.36
2023-03-29T08:46:01.633Z,14.39
2023-03-29T08:48:35.047Z,14.44
2023-03-29T08:51:11.438Z,14.44
2023-03-29T08:53:45.261Z,14.45
2023-03-29T08:56:18.619Z,14.63
2023-03-29T08:58:49.684Z,14.61
2023-03-29T09:01:19.645Z,14.72
2023-03-29T09:03:53.273Z,14.63
2023-03-29T09:06:22.126Z,14.64
2023-03-29T09:08:53.283Z,14.79
2023-03-29T09:11:24.880Z,14.97
2023-03-29T09:14:21.590Z,15.07
2023-03-29T09:17:11.911Z,15.19
2023-03-29T09:19:54.208Z,14.85
2023-03-29T09:22:36.602Z,15.20
2023-03-29T09:25:13.239Z,15.26
2023-03-29T09:28:09.474Z,15.55
2023-03-29T09:30:43.044Z,15.58
2023-03-29T09:33:37.225Z,15.53
2023-03-29T09:36:10.072Z,15.37
2023-03-29T09:38:46.319Z,15.36
2023-03-29T09:41:30.084Z,15.58
2023-03-29T09:44:02.578Z,15.37
2023-03-29T09:46:40.539Z,15.03
2023-03-29T09:49:17.688Z,15.22
2023-03-29T09:51:49.133Z,15.21
2023-03-29T09:54:17.637Z,15.11
2023-03-29T09:56:46.561Z,15.03
2023-03-29T09:59:15.434Z,15.11
2023-03-29T10:01:46.733Z,15.27
2023-03-29T10:04:16.716Z,15.39
2023-03-29T10:06:52.120Z,15.13
2023-03-29T10:09:23.007Z,15.31
2023-03-29T10:11:54.739Z,15.26
2023-03-29T10:14:33.307Z,15.31
2023-03-29T10:17:05.785Z,15.42
2023-03-29T10:19:35.956Z,15.57
2023-03-29T10:22:40.760Z,15.75
2023-03-29T10:25:14.175Z,15.95
2023-03-29T10:27:44.993Z,15.29
2023-03-29T10:30:25.500Z,15.93
2023-03-29T10:32:59.801Z,16.07
2023-03-29T10:35:33.724Z,16.44
2023-03-29T10:38:07.708Z,16.48
2023-03-29T10:40:43.138Z,16.24
2023-03-29T10:43:26.255Z,16.84
2023-03-29T10:45:57.499Z,17.08
2023-03-29T10:48:31.113Z,17.26
2023-03-29T10:51:06.046Z,16.63
2023-03-29T10:53:36.515Z,17.23
2023-03-29T10:56:20.267Z,17.42
2023-03-29T10:59:27.590Z,17.12
2023-03-29T11:02:14.698Z,17.36
2023-03-29T11:04:43.229Z,17.46
2023-03-29T11:07:49.498Z,16.86
2023-03-29T11:10:46.830Z,17.24
2023-03-29T11:13:33.193Z,17.42
2023-03-29T11:16:32.935Z,16.92
2023-03-29T11:19:35.612Z,17.31
2023-03-29T11:22:03.952Z,16.83
2023-03-29T11:24:41.715Z,16.29
2023-03-29T11:27:35.090Z,17.07
2023-03-29T11:30:03.673Z,17.13
2023-03-29T11:32:41.276Z,17.63
2023-03-29T11:35:48.036Z,17.62
2023-03-29T11:38:22.876Z,17.14
2023-03-29T11:41:28.309Z,17.85
2023-03-29T11:44:04.754Z,18.13
2023-03-29T11:46:44.002Z,18.45
2023-03-29T11:49:25.235Z,18.51
2023-03-29T11:52:04.218Z,18.17
2023-03-29T11:54:45.913Z,18.35
2023-03-29T11:57:41.870Z,18.63
2023-03-29T12:00:20.629Z,18.90
2023-03-29T12:02:54.932Z,18.64
2023-03-29T12:05:32.309Z,18.71
2023-03-29T12:08:07.128Z,18.32
2023-03-29T12:11:07.922Z,18.52
2023-03-29T12:14:00.086Z,18.45
2023-03-29T12:16:35.171Z,18.96
2023-03-29T12:19:31.261Z,18.72
2023-03-29T12:22:01.050Z,18.32
2023-03-29T12:24:32.477Z,19.03
2023-03-29T12:27:22.403Z,19.29
2023-03-29T12:30:03.019Z,18.91
2023-03-29T12:32:53.667Z,18.39
2023-03-29T12:35:22.239Z,18.66
2023-03-29T12:38:22.448Z,19.06
2023-03-29T12:41:00.184Z,17.91
2023-03-29T12:43:33.045Z,18.83
2023-03-29T12:46:08.061Z,19.02
2023-03-29T12:48:38.808Z,18.84
2023-03-29T12:51:12.632Z,18.59
2023-03-29T12:53:50.627Z,18.81
2023-03-29T12:56:34.851Z,18.92
2023-03-29T12:59:24.471Z,19.31
2023-03-29T13:02:13.789Z,19.58
2023-03-29T13:04:42.395Z,19.40
2023-03-29T13:07:15.070Z,19.08
2023-03-29T13:09:56.750Z,19.43
2023-03-29T13:12:42.286Z,19.50
2023-03-29T13:15:16.877Z,19.80
2023-03-29T13:18:04.048Z,19.79
2023-03-29T13:20:38.672Z,19.87
2023-03-29T13:23:22.363Z,19.90
2023-03-29T13:26:07.664Z,19.28
2023-03-29T13:28:58.376Z,19.22
2023-03-29T13:32:01.873Z,19.63
2023-03-29T13:34:55.074Z,19.78
2023-03-29T13:37:27.255Z,19.81
2023-03-29T13:39:56.276Z,19.66
2023-03-29T13:42:34.188Z,19.76
2023-03-29T13:45:32.459Z,19.96
2023-03-29T13:48:21.601Z,19.85
2023-03-29T13:51:03.233Z,19.99
2023-03-29T13:53:38.294Z,19.86
2023-03-29T13:56:15.527Z,20.04
2023-03-29T13:58:55.827Z,20.17
2023-03-29T14:01:35.101Z,20.16
2023-03-29T14:04:05.911Z,19.70
2023-03-29T14:06:37.166Z,19.98
2023-03-29T14:09:08.806Z,19.59
2023-03-29T14:11:37.249Z,19.76
2023-03-29T14:14:08.196Z,19.66
2023-03-29T14:16:39.000Z,19.84
2023-03-29T14:19:15.295Z,20.09
2023-03-29T14:21:44.755Z,20.23
2023-03-29T14:24:22.263Z,19.61
2023-03-29T14:26:53.078Z,19.98
2023-03-29T14:29:24.234Z,20.19
2023-03-29T14:31:53.927Z,20.27
2023-03-29T14:34:22.884Z,20.18
2023-03-29T14:36:54.105Z,19.87
2023-03-29T14:39:23.609Z,19.94
2023-03-29T14:41:54.931Z,20.04
2023-03-29T14:44:33.206Z,20.45
2023-03-29T14:47:03.364Z,20.45
2023-03-29T14:49:32.266Z,20.47
2023-03-29T14:52:00.848Z,20.55
2023-03-29T14:54:32.759Z,20.71
2023-03-29T14:57:07.071Z,20.59
2023-03-29T14:59:42.896Z,20.57
2023-03-29T15:02:32.909Z,20.74
2023-03-29T15:05:07.422Z,20.59
2023-03-29T15:07:37.129Z,20.57
2023-03-29T15:10:06.512Z,20.51
2023-03-29T15:12:43.241Z,20.56
2023-03-29T15:15:13.545Z,20.65
2023-03-29T15:17:51.943Z,20.65
2023-03-29T15:20:26.001Z,20.58
2023-03-29T15:22:59.538Z,20.77
2023-03-29T15:25:37.094Z,20.29
2023-03-29T15:28:06.308Z,20.44
2023-03-29T15:30:39.087Z,20.62
2023-03-29T15:33:20.571Z,20.39
2023-03-29T15:35:53.799Z,20.47
2023-03-29T15:38:30.188Z,20.54
2023-03-29T15:41:06.608Z,20.61
2023-03-29T15:43:36.213Z,20.56
2023-03-29T15:46:05.182Z,20.54
2023-03-29T15:48:34.067Z,20.52
2023-03-29T15:51:05.732Z,20.17
2023-03-29T15:53:35.822Z,20.48
2023-03-29T15:56:07.936Z,20.19
2023-03-29T15:58:37.364Z,20.36
2023-03-29T16:01:37.355Z,20.01
2023-03-29T16:04:11.312Z,20.51
2023-03-29T16:06:40.993Z,19.86
2023-03-29T16:09:11.969Z,20.34
2023-03-29T16:11:41.812Z,20.30
2023-03-29T16:14:19.171Z,20.41
2023-03-29T16:16:47.639Z,20.43
2023-03-29T16:19:16.202Z,20.48
2023-03-29T16:21:45.170Z,20.39
2023-03-29T16:24:16.702Z,20.44
2023-03-29T16:26:46.340Z,20.34
2023-03-29T16:29:17.505Z,20.55
2023-03-29T16:31:47.297Z,20.62
2023-03-29T16:34:18.742Z,20.79
2023-03-29T16:36:47.835Z,20.58
2023-03-29T16:39:18.347Z,20.68
2023-03-29T16:41:48.963Z,20.66
2023-03-29T16:44:22.843Z,20.40
2023-03-29T16:46:54.206Z,20.58
2023-03-29T16:49:24.252Z,20.53
2023-03-29T16:51:52.763Z,20.69
2023-03-29T16:54:21.369Z,20.73
2023-03-29T16:56:49.932Z,20.67
2023-03-29T16:59:18.538Z,20.64
2023-03-29T17:01:47.331Z,20.68
2023-03-29T17:04:15.949Z,20.77
2023-03-29T17:06:44.492Z,20.73
2023-03-29T17:09:12.951Z,20.60
2023-03-29T17:11:41.565Z,20.70
2023-03-29T17:14:10.430Z,20.64
2023-03-29T17:16:38.884Z,20.57
2023-03-29T17:19:07.338Z,20.62
2023-03-29T17:21:35.794Z,20.59
2023-03-29T17:24:04.363Z,20.53
2023-03-29T17:26:34.034Z,20.51
2023-03-29T17:29:02.502Z,20.48
2023-03-29T17:31:31.208Z,20.43
2023-03-29T17:33:59.662Z,20.34
2023-03-29T17:36:28.967Z,20.39
2023-03-29T17:39:02.026Z,20.34
2023-03-29T17:41:31.372Z,20.33
2023-03-29T17:44:01.259Z,20.38
2023-03-29T17:46:30.117Z,20.35
2023-03-29T17:49:00.285Z,20.35
2023-03-29T17:51:28.812Z,20.24
2023-03-29T17:53:58.206Z,20.27
2023-03-29T17:56:26.725Z,20.29
2023-03-29T17:58:55.409Z,20.23
2023-03-29T18:01:23.934Z,20.19
2023-03-29T18:03:52.452Z,20.22
2023-03-29T18:06:21.275Z,20.19
2023-03-29T18:08:49.953Z,20.17
2023-03-29T18:11:22.821Z,20.16
2023-03-29T18:13:52.921Z,20.11
2023-03-29T18:16:22.132Z,20.22
2023-03-29T18:18:51.020Z,20.31
2023-03-29T18:21:19.752Z,20.04
2023-03-29T18:23:49.879Z,20.25
2023-03-29T18:26:18.687Z,20.15
2023-03-29T18:28:47.209Z,20.05
2023-03-29T18:31:16.061Z,19.93
2023-03-29T18:33:44.836Z,19.93
2023-03-29T18:36:13.921Z,19.99
2023-03-29T18:38:43.622Z,19.91
2023-03-29T18:41:14.055Z,19.95
2023-03-29T18:43:44.225Z,19.85
2023-03-29T18:46:13.026Z,19.89
2023-03-29T18:48:41.687Z,19.87
2023-03-29T18:51:11.640Z,19.82
2023-03-29T18:53:42.163Z,19.75
2023-03-29T18:56:11.188Z,19.79
2023-03-29T18:58:39.721Z,19.94
2023-03-29T19:01:09.675Z,19.92
2023-03-29T19:03:38.403Z,19.86
2023-03-29T19:06:07.950Z,19.88
2023-03-29T19:08:38.738Z,19.77
2023-03-29T19:11:10.187Z,19.62
2023-03-29T19:13:38.828Z,19.61
2023-03-29T19:16:07.654Z,19.79
2023-03-29T19:18:39.287Z,19.80
2023-03-29T19:21:07.964Z,19.69
2023-03-29T19:23:36.619Z,19.63
2023-03-29T19:26:06.107Z,19.54
2023-03-29T19:28:35.154Z,19.52
2023-03-29T19:31:04.005Z,19.65
2023-03-29T19:33:32.879Z,19.54
2023-03-29T19:36:01.656Z,19.44
2023-03-29T19:38:30.429Z,19.56
2023-03-29T19:40:59.084Z,19.58
2023-03-29T19:43:27.600Z,19.54
2023-03-29T19:45:56.178Z,19.54
2023-03-29T19:48:24.906Z,19.43
2023-03-29T19:50:53.410Z,19.36
2023-03-29T19:53:23.195Z,19.36
2023-03-29T19:55:52.359Z,19.28
2023-03-29T19:58:21.681Z,19.08
2023-03-29T20:00:53.111Z,19.08
2023-03-29T20:03:21.789Z,19.12
2023-03-29T20:05:50.825Z,19.19
2023-03-29T20:08:19.210Z,19.28
2023-03-29T20:10:47.665Z,19.22
2023-03-29T20:13:24.466Z,19.19
2023-03-29T20:16:00.333Z,19.19
2023-03-29T20:18:28.794Z,19.16
2023-03-29T20:20:57.360Z,19.08
2023-03-29T20:23:25.842Z,19.13
2023-03-29T20:25:55.347Z,19.18
2023-03-29T20:28:24.612Z,19.06
2023-03-29T20:30:53.731Z,19.01
2023-03-29T20:33:22.412Z,18.92
2023-03-29T20:35:50.943Z,18.89
2023-03-29T20:38:19.444Z,18.79
2023-03-29T20:40:49.067Z,18.69
2023-03-29T20:43:20.378Z,18.71
2023-03-29T20:45:54.010Z,18.76
2023-03-29T20:48:24.811Z,18.77
2023-03-29T20:50:54.140Z,18.76
2023-03-29T20:53:22.621Z,18.86
2023-03-29T20:55:51.791Z,18.92
2023-03-29T20:58:20.441Z,18.85
2023-03-29T21:00:50.293Z,18.73
2023-03-29T21:03:19.678Z,18.78
2023-03-29T21:05:53.622Z,18.73
2023-03-29T21:08:22.071Z,18.87
2023-03-29T21:10:51.616Z,18.90
2023-03-29T21:13:20.062Z,18.81
2023-03-29T21:15:49.443Z,18.67
2023-03-29T21:18:17.983Z,18.60
2023-03-29T21:20:46.592Z,18.65
2023-03-29T21:23:15.604Z,18.55
2023-03-29T21:25:44.143Z,18.71
2023-03-29T21:28:13.275Z,18.68
2023-03-29T21:33:10.389Z,18.70
2023-03-29T21:35:38.837Z,18.70
2023-03-29T21:38:07.322Z,18.59
2023-03-29T21:40:36.652Z,18.55
2023-03-29T21:43:05.268Z,18.59
2023-03-29T21:45:33.682Z,18.75
2023-03-29T21:48:02.249Z,18.51
2023-03-29T21:50:33.229Z,18.54
2023-03-29T21:53:02.297Z,18.53
2023-03-29T21:55:34.054Z,18.63
2023-03-29T21:58:03.929Z,18.60
2023-03-29T22:00:32.721Z,18.67
2023-03-29T22:03:01.155Z,18.60
2023-03-29T22:05:29.654Z,18.53
2023-03-29T22:07:58.683Z,18.55
2023-03-29T22:10:27.632Z,18.60
2023-03-29T22:12:57.028Z,18.61
2023-03-29T22:15:26.360Z,18.51
2023-03-29T22:17:57.889Z,18.45
2023-03-29T22:20:28.374Z,18.48
2023-03-29T22:22:56.970Z,18.57
2023-03-29T22:25:25.604Z,18.60
2023-03-29T22:27:54.009Z,18.54
2023-03-29T22:30:22.790Z,18.45
2023-03-29T22:32:51.797Z,18.46
2023-03-29T22:35:20.711Z,18.38
2023-03-29T22:37:49.137Z,18.35
2023-03-29T22:40:17.963Z,18.37
2023-03-29T22:42:46.406Z,18.27
2023-03-29T22:45:14.971Z,18.29
2023-03-29T22:47:43.405Z,18.28
2023-03-29T22:50:12.009Z,18.37
2023-03-29T22:52:40.521Z,18.34
2023-03-29T22:55:09.203Z,18.24
2023-03-29T22:57:37.556Z,18.21
2023-03-29T23:00:08.912Z,18.29
2023-03-29T23:02:37.776Z,18.32
2023-03-29T23:05:06.949Z,18.18
2023-03-29T23:07:36.504Z,18.33
2023-03-29T23:10:06.889Z,18.43
2023-03-29T23:12:38.303Z,18.32
2023-03-29T23:15:08.020Z,18.33
2023-03-29T23:17:37.228Z,18.25
2023-03-29T23:20:06.453Z,18.35
2023-03-29T23:22:36.296Z,18.37
2023-03-29T23:25:05.135Z,18.34
2023-03-29T23:27:34.627Z,18.36
2023-03-29T23:30:03.314Z,18.34
2023-03-29T23:32:32.357Z,18.35
2023-03-29T23:35:00.826Z,18.33
2023-03-29T23:37:29.212Z,18.39
2023-03-29T23:39:57.800Z,18.30
2023-03-29T23:42:26.342Z,18.53
2023-03-29T23:44:55.816Z,18.65
2023-03-29T23:47:26.557Z,18.73
2023-03-29T23:49:55.040Z,18.57
2023-03-29T23:52:23.637Z,18.73
2023-03-29T23:54:52.130Z,18.76
2023-03-29T23:57:21.246Z,18.72
2023-03-29T23:59:52.619Z,18.77
